Lena, Indiana
Current Conditions -  °F | °C
As of 11:53 AM on Friday 28 Nov 2014 (Local Time) from KHUF Reporting Station
Few Clouds Few Clouds  
Wind Chill: 20°   Ceiling: Unl
Heat Index: 30°   Visibility: 10mi
Dew Point: 22°   Wind: 14mph
Humidity: 72%   Direction: 160°SSE
Pressure: 30.28"   Gusts: NA
Location:  39.5158°N, 87.1262°W
Report Text: KHUF 281653Z 16012KT 10SM FEW120 M01/M06 A3028 RMK AO2 SLP261 T10111056
Loading
Personal Weather Stations






























Interactive Weather Map New forecast layout! Learn more

10-Day Weather Forecast

Advertisements
Track Severe Weather on mobile